createdAt,value
2022-12-08T00:00:10.144Z,0.96
2022-12-08T00:03:04.040Z,0.96
2022-12-08T00:05:51.758Z,0.93
2022-12-08T00:08:38.916Z,0.93
2022-12-08T00:11:13.508Z,0.92
2022-12-08T00:13:42.965Z,0.92
2022-12-08T00:16:12.385Z,0.88
2022-12-08T00:18:41.627Z,0.85
2022-12-08T00:21:10.705Z,0.87
2022-12-08T00:23:43.647Z,0.84
2022-12-08T00:26:12.648Z,0.82
2022-12-08T00:28:44.387Z,0.78
2022-12-08T00:31:13.954Z,0.74
2022-12-08T00:33:43.193Z,0.71
2022-12-08T00:36:16.068Z,0.65
2022-12-08T00:38:47.740Z,0.61
2022-12-08T00:41:18.860Z,0.59
2022-12-08T00:43:47.636Z,0.57
2022-12-08T00:46:16.372Z,0.54
2022-12-08T00:48:46.492Z,0.47
2022-12-08T00:51:15.167Z,0.44
2022-12-08T00:53:45.579Z,0.39
2022-12-08T00:56:14.354Z,0.36
2022-12-08T00:58:45.796Z,0.32
2022-12-08T01:01:16.279Z,0.25
2022-12-08T01:03:47.558Z,0.23
2022-12-08T01:06:16.448Z,0.19
2022-12-08T01:08:45.749Z,0.16
2022-12-08T01:11:16.731Z,0.14
2022-12-08T01:13:47.416Z,0.12
2022-12-08T01:16:24.248Z,0.09
2022-12-08T01:18:56.369Z,0.11
2022-12-08T01:21:29.226Z,0.09
2022-12-08T01:24:02.344Z,0.11
2022-12-08T01:26:31.344Z,0.08
2022-12-08T01:29:01.077Z,0.08
2022-12-08T01:31:29.953Z,0.05
2022-12-08T01:33:58.727Z,0.04
2022-12-08T01:36:29.664Z,0.02
2022-12-08T01:39:05.383Z,0.01
2022-12-08T01:41:36.972Z,0.01
2022-12-08T01:44:43.543Z,0.04
2022-12-08T01:47:12.808Z,0.08
2022-12-08T01:49:41.281Z,0.12
2022-12-08T01:52:16.299Z,0.11
2022-12-08T01:54:49.664Z,0.11
2022-12-08T01:57:24.184Z,0.14
2022-12-08T01:59:59.835Z,0.14
2022-12-08T02:02:38.539Z,0.12
2022-12-08T02:05:09.597Z,0.14
2022-12-08T02:07:38.855Z,0.12
2022-12-08T02:10:15.512Z,0.09
2022-12-08T02:12:44.873Z,0.11
2022-12-08T02:15:15.993Z,0.15
2022-12-08T02:17:57.128Z,0.15
2022-12-08T02:20:53.840Z,0.14
2022-12-08T02:23:35.100Z,0.15
2022-12-08T02:26:35.370Z,0.15
2022-12-08T02:29:29.868Z,0.14
2022-12-08T02:32:14.844Z,0.12
2022-12-08T02:34:50.211Z,0.12
2022-12-08T02:37:26.733Z,0.09
2022-12-08T02:40:03.425Z,0.11
2022-12-08T02:42:38.131Z,0.12
2022-12-08T02:45:12.788Z,0.12
2022-12-08T02:47:42.819Z,0.11
2022-12-08T02:50:12.638Z,0.12
2022-12-08T02:52:56.021Z,0.14
2022-12-08T02:55:30.093Z,0.14
2022-12-08T02:58:29.267Z,0.12
2022-12-08T03:01:15.924Z,0.11
2022-12-08T03:03:51.537Z,0.12
2022-12-08T03:06:32.515Z,0.09
2022-12-08T03:09:10.077Z,0.06
2022-12-08T03:11:44.444Z,0.02
2022-12-08T03:14:17.530Z,-0.02
2022-12-08T03:16:49.621Z,-0.05
2022-12-08T03:19:23.493Z,-0.08
2022-12-08T03:22:00.022Z,-0.11
2022-12-08T03:24:31.977Z,-0.16
2022-12-08T03:27:05.869Z,-0.16
2022-12-08T03:29:34.880Z,-0.19
2022-12-08T03:32:16.266Z,-0.15
2022-12-08T03:34:48.057Z,-0.18
2022-12-08T03:37:17.103Z,-0.16
2022-12-08T03:39:45.846Z,-0.15
2022-12-08T03:42:14.992Z,-0.16
2022-12-08T03:44:43.847Z,-0.16
2022-12-08T03:47:13.142Z,-0.16
2022-12-08T03:49:41.871Z,-0.19
2022-12-08T03:52:13.556Z,-0.19
2022-12-08T03:54:42.449Z,-0.19
2022-12-08T03:57:11.178Z,-0.21
2022-12-08T03:59:39.020Z,-0.23
2022-12-08T04:02:07.822Z,-0.25
2022-12-08T04:04:36.527Z,-0.23
2022-12-08T04:07:06.045Z,-0.29
2022-12-08T04:09:34.768Z,-0.27
2022-12-08T04:12:06.612Z,-0.25
2022-12-08T04:14:35.415Z,-0.23
2022-12-08T04:17:07.960Z,-0.18
2022-12-08T04:19:40.475Z,-0.15
2022-12-08T04:22:09.265Z,-0.11
2022-12-08T04:24:38.113Z,-0.09
2022-12-08T04:27:07.972Z,-0.05
2022-12-08T04:29:36.972Z,-0.01
2022-12-08T04:32:06.445Z,0.05
2022-12-08T04:34:35.119Z,0.09
2022-12-08T04:37:05.818Z,0.12
2022-12-08T04:39:34.504Z,0.19
2022-12-08T04:42:04.316Z,0.22
2022-12-08T04:44:33.006Z,0.25
2022-12-08T04:47:03.893Z,0.29
2022-12-08T04:49:32.867Z,0.28
2022-12-08T04:52:01.656Z,0.28
2022-12-08T04:54:31.279Z,0.26
2022-12-08T04:57:00.004Z,0.22
2022-12-08T04:59:28.742Z,0.21
2022-12-08T05:01:57.986Z,0.18
2022-12-08T05:04:27.151Z,0.12
2022-12-08T05:06:58.161Z,0.11
2022-12-08T05:09:27.707Z,0.08
2022-12-08T05:11:56.527Z,0.06
2022-12-08T05:14:25.360Z,0.04
2022-12-08T05:16:54.123Z,0.04
2022-12-08T05:19:23.469Z,0.04
2022-12-08T05:21:52.308Z,0.01
2022-12-08T05:24:21.139Z,0.02
2022-12-08T05:26:49.783Z,0.04
2022-12-08T05:29:19.032Z,-0.02
2022-12-08T05:31:47.768Z,-0.01
2022-12-08T05:34:16.541Z,-0.04
2022-12-08T05:36:45.241Z,-0.05
2022-12-08T05:39:17.665Z,-0.05
2022-12-08T05:41:47.623Z,-0.05
2022-12-08T05:44:17.131Z,-0.04
2022-12-08T05:46:45.999Z,-0.06
2022-12-08T05:49:15.011Z,-0.04
2022-12-08T05:51:44.232Z,-0.04
2022-12-08T05:54:13.680Z,-0.08
2022-12-08T05:56:42.592Z,-0.11
2022-12-08T05:59:14.114Z,-0.13
2022-12-08T06:01:42.903Z,-0.13
2022-12-08T06:04:11.894Z,-0.09
2022-12-08T06:06:40.677Z,-0.09
2022-12-08T06:09:09.533Z,-0.06
2022-12-08T06:11:40.840Z,-0.01
2022-12-08T06:14:12.597Z,0.02
2022-12-08T06:16:41.445Z,0.06
2022-12-08T06:19:10.438Z,0.11
2022-12-08T06:21:39.833Z,0.12
2022-12-08T06:24:09.131Z,0.16
2022-12-08T06:26:40.943Z,0.16
2022-12-08T06:29:09.619Z,0.21
2022-12-08T06:31:39.049Z,0.21
2022-12-08T06:34:07.871Z,0.25
2022-12-08T06:36:36.971Z,0.25
2022-12-08T06:39:09.248Z,0.25
2022-12-08T06:41:53.627Z,0.26
2022-12-08T06:44:24.776Z,0.26
2022-12-08T06:46:53.583Z,0.23
2022-12-08T06:49:22.549Z,0.22
2022-12-08T06:51:51.279Z,0.21
2022-12-08T06:54:20.126Z,0.18
2022-12-08T06:56:49.550Z,0.15
2022-12-08T06:59:19.044Z,0.15
2022-12-08T07:01:48.014Z,0.09
2022-12-08T07:04:17.556Z,0.06
2022-12-08T07:06:46.450Z,0.06
2022-12-08T07:09:16.691Z,0.01
2022-12-08T07:11:45.456Z,-0.04
2022-12-08T07:14:14.243Z,-0.05
2022-12-08T07:16:43.813Z,-0.09
2022-12-08T07:19:13.043Z,-0.13
2022-12-08T07:21:42.419Z,-0.12
2022-12-08T07:24:12.580Z,-0.16
2022-12-08T07:26:42.841Z,-0.21
2022-12-08T07:29:11.886Z,-0.19
2022-12-08T07:31:40.608Z,-0.18
2022-12-08T07:34:12.195Z,-0.21
2022-12-08T07:36:41.212Z,-0.21
2022-12-08T07:39:10.409Z,-0.23
2022-12-08T07:41:40.502Z,-0.21
2022-12-08T07:44:10.521Z,-0.22
2022-12-08T07:46:39.814Z,-0.18
2022-12-08T07:49:08.657Z,-0.18
2022-12-08T07:51:42.655Z,-0.13
2022-12-08T07:54:12.644Z,-0.11
2022-12-08T07:56:41.541Z,-0.09
2022-12-08T07:59:10.354Z,-0.04
2022-12-08T08:01:39.399Z,-0.01
2022-12-08T08:04:08.505Z,0.04
2022-12-08T08:06:39.690Z,0.06
2022-12-08T08:09:09.806Z,0.15
2022-12-08T08:11:38.636Z,0.19
2022-12-08T08:14:07.596Z,0.29
2022-12-08T08:16:41.603Z,0.36
2022-12-08T08:19:10.633Z,0.42
2022-12-08T08:21:46.971Z,0.53
2022-12-08T08:24:17.653Z,0.57
2022-12-08T08:26:46.376Z,0.63
2022-12-08T08:29:15.287Z,0.65
2022-12-08T08:31:44.707Z,0.71
2022-12-08T08:34:13.617Z,0.75
2022-12-08T08:36:42.943Z,0.88
2022-12-08T08:39:13.705Z,1.00
2022-12-08T08:41:45.779Z,1.09
2022-12-08T08:44:15.488Z,1.19
2022-12-08T08:46:44.481Z,1.29
2022-12-08T08:49:14.218Z,1.37
2022-12-08T08:51:43.344Z,1.49
2022-12-08T08:54:13.041Z,1.58
2022-12-08T08:56:41.895Z,1.72
2022-12-08T08:59:15.280Z,1.86
2022-12-08T09:01:44.114Z,2.05
2022-12-08T09:04:13.328Z,2.12
2022-12-08T09:06:42.714Z,2.21
2022-12-08T09:09:12.410Z,2.24
2022-12-08T09:11:44.552Z,2.33
2022-12-08T09:14:14.262Z,2.43
2022-12-08T09:16:43.071Z,2.58
2022-12-08T09:19:12.353Z,2.69
2022-12-08T09:21:43.239Z,2.81
2022-12-08T09:24:17.769Z,2.92
2022-12-08T09:26:46.628Z,2.99
2022-12-08T09:29:17.069Z,3.00
2022-12-08T09:31:46.143Z,3.07
2022-12-08T09:34:15.933Z,3.10
2022-12-08T09:36:44.852Z,3.14
2022-12-08T09:39:14.759Z,3.23
2022-12-08T09:41:50.340Z,3.30
2022-12-08T09:44:40.388Z,3.38
2022-12-08T09:47:18.741Z,3.52
2022-12-08T09:49:56.706Z,3.57
2022-12-08T09:52:33.592Z,3.52
2022-12-08T09:55:12.440Z,3.52
2022-12-08T09:57:41.724Z,3.52
2022-12-08T10:00:15.215Z,3.54
2022-12-08T10:02:48.195Z,3.55
2022-12-08T10:05:21.333Z,3.66
2022-12-08T10:08:01.410Z,3.92
2022-12-08T10:10:42.625Z,4.11
2022-12-08T10:13:22.070Z,4.07
2022-12-08T10:16:07.403Z,3.97
2022-12-08T10:19:02.312Z,3.78
2022-12-08T10:21:34.524Z,3.62
2022-12-08T10:24:16.711Z,3.48
2022-12-08T10:26:50.442Z,3.41
2022-12-08T10:29:26.440Z,3.32
2022-12-08T10:31:59.046Z,3.26
2022-12-08T10:34:28.288Z,3.21
2022-12-08T10:37:00.270Z,3.14
2022-12-08T10:39:38.014Z,3.10
2022-12-08T10:42:21.391Z,3.13
2022-12-08T10:44:58.587Z,3.59
2022-12-08T10:47:35.551Z,4.75
2022-12-08T10:50:17.571Z,5.97
2022-12-08T10:52:56.979Z,6.93
2022-12-08T10:55:26.779Z,6.90
2022-12-08T10:57:55.787Z,6.50
2022-12-08T11:00:28.344Z,5.96
2022-12-08T11:03:01.158Z,5.50
2022-12-08T11:05:34.619Z,5.10
2022-12-08T11:08:06.866Z,4.80
2022-12-08T11:10:39.115Z,4.52
2022-12-08T11:13:19.879Z,4.27
2022-12-08T11:15:49.920Z,4.06
2022-12-08T11:18:28.463Z,3.94
2022-12-08T11:21:12.553Z,3.80
2022-12-08T11:23:48.052Z,3.71
2022-12-08T11:29:04.165Z,3.73
2022-12-08T11:31:44.225Z,3.82
2022-12-08T11:34:22.872Z,3.86
2022-12-08T11:36:56.516Z,3.90
2022-12-08T11:39:31.366Z,3.96
2022-12-08T11:42:04.744Z,3.93
2022-12-08T11:44:42.361Z,3.80
2022-12-08T11:47:17.605Z,3.69
2022-12-08T11:49:53.810Z,3.57
2022-12-08T11:52:27.836Z,3.45
2022-12-08T11:55:02.427Z,3.32
2022-12-08T11:57:31.579Z,3.23
2022-12-08T12:00:15.088Z,3.16
2022-12-08T12:02:54.816Z,3.07
2022-12-08T12:09:01.192Z,2.93
2022-12-08T12:12:13.185Z,2.88
2022-12-08T12:15:31.500Z,2.86
2022-12-08T12:18:14.856Z,2.79
2022-12-08T12:20:54.207Z,2.79
2022-12-08T12:23:39.972Z,2.72
2022-12-08T12:26:21.367Z,2.68
2022-12-08T12:28:59.071Z,2.65
2022-12-08T12:31:40.977Z,2.67
2022-12-08T12:34:18.577Z,2.67
2022-12-08T12:36:56.456Z,2.68
2022-12-08T12:39:30.496Z,2.67
2022-12-08T12:42:01.399Z,2.67
2022-12-08T12:44:43.016Z,2.65
2022-12-08T12:47:55.955Z,2.68
2022-12-08T12:50:45.875Z,2.65
2022-12-08T12:53:50.553Z,2.65
2022-12-08T12:56:50.755Z,2.64
2022-12-08T12:59:35.969Z,2.65
2022-12-08T13:02:19.605Z,2.68
2022-12-08T13:04:57.727Z,2.68
2022-12-08T13:07:32.710Z,2.69
2022-12-08T13:10:14.112Z,2.69
2022-12-08T13:13:01.881Z,2.68
2022-12-08T13:15:36.647Z,2.67
2022-12-08T13:18:18.374Z,2.64
2022-12-08T13:20:52.820Z,2.62
2022-12-08T13:23:45.032Z,2.61
2022-12-08T13:26:20.652Z,2.58
2022-12-08T13:29:14.660Z,2.58
2022-12-08T13:31:50.562Z,2.54
2022-12-08T13:34:30.037Z,2.54
2022-12-08T13:37:09.083Z,2.53
2022-12-08T13:39:46.895Z,2.51
2022-12-08T13:42:25.181Z,2.48
2022-12-08T13:48:27.923Z,2.38
2022-12-08T13:55:06.896Z,2.30
2022-12-08T13:57:09.984Z,2.26
2022-12-08T13:59:47.643Z,2.20
2022-12-08T14:02:27.859Z,2.16
2022-12-08T14:07:49.528Z,2.09
2022-12-08T14:10:22.092Z,2.03
2022-12-08T14:12:56.993Z,1.96
2022-12-08T14:15:28.411Z,1.96
2022-12-08T14:17:59.349Z,1.90
2022-12-08T14:20:51.995Z,1.88
2022-12-08T14:23:23.112Z,1.83
2022-12-08T14:25:52.370Z,1.82
2022-12-08T14:28:25.156Z,1.79
2022-12-08T14:30:57.017Z,1.77
2022-12-08T14:33:26.909Z,1.77
2022-12-08T14:36:01.585Z,1.77
2022-12-08T14:38:40.693Z,1.74
2022-12-08T14:41:13.019Z,1.74
2022-12-08T14:43:46.463Z,1.72
2022-12-08T14:46:28.640Z,1.70
2022-12-08T14:48:59.648Z,1.68
2022-12-08T14:51:33.057Z,1.67
2022-12-08T14:54:09.134Z,1.65
2022-12-08T14:56:48.302Z,1.62
2022-12-08T14:59:22.320Z,1.61
2022-12-08T15:01:52.140Z,1.61
2022-12-08T15:04:26.345Z,1.60
2022-12-08T15:07:02.850Z,1.58
2022-12-08T15:09:35.946Z,1.57
2022-12-08T15:12:08.574Z,1.55
2022-12-08T15:14:42.847Z,1.55
2022-12-08T15:44:00.029Z,1.60
2022-12-08T15:46:52.660Z,1.58
2022-12-08T15:49:29.274Z,1.58
2022-12-08T15:52:11.059Z,1.57
2022-12-08T15:54:44.041Z,1.55
2022-12-08T15:57:44.262Z,1.54
2022-12-08T16:00:53.085Z,1.54
2022-12-08T16:04:08.964Z,1.53
2022-12-08T16:09:28.011Z,1.55
2022-12-08T16:12:15.839Z,1.57
2022-12-08T16:15:47.306Z,1.57
2022-12-08T16:17:37.397Z,1.61
2022-12-08T16:20:16.197Z,1.64
2022-12-08T16:22:59.545Z,1.67
2022-12-08T16:26:00.023Z,1.71
2022-12-08T16:31:22.799Z,1.78
2022-12-08T16:33:52.487Z,1.82
2022-12-08T16:36:23.801Z,1.85
2022-12-08T16:38:56.397Z,1.88
2022-12-08T16:41:46.305Z,1.89
2022-12-08T16:44:21.372Z,1.92
2022-12-08T16:46:53.505Z,1.95
2022-12-08T16:49:24.569Z,1.98
2022-12-08T16:51:53.443Z,2.02
2022-12-08T16:54:25.558Z,2.02
2022-12-08T16:56:54.644Z,2.05
2022-12-08T16:59:23.906Z,2.07
2022-12-08T17:01:52.833Z,2.09
2022-12-08T17:04:31.407Z,2.10
2022-12-08T17:07:01.224Z,2.12
2022-12-08T17:09:31.857Z,2.14
2022-12-08T17:12:04.027Z,2.13
2022-12-08T17:14:34.977Z,2.14
2022-12-08T17:17:04.207Z,2.17
2022-12-08T17:19:33.405Z,2.18
2022-12-08T17:22:02.509Z,2.20
2022-12-08T17:24:32.518Z,2.21
2022-12-08T17:27:03.702Z,2.24
2022-12-08T17:29:33.769Z,2.23
2022-12-08T17:32:02.870Z,2.23
2022-12-08T17:34:32.842Z,2.24
2022-12-08T17:37:07.951Z,2.26
2022-12-08T17:39:38.508Z,2.27
2022-12-08T17:42:09.148Z,2.29
2022-12-08T17:44:41.679Z,2.29
2022-12-08T17:47:16.906Z,2.30
2022-12-08T17:49:47.069Z,2.32
2022-12-08T17:52:16.446Z,2.30
2022-12-08T17:54:48.430Z,2.29
2022-12-08T17:57:17.434Z,2.30
2022-12-08T17:59:46.448Z,2.29
2022-12-08T18:02:18.566Z,2.32
2022-12-08T18:04:47.768Z,2.30
2022-12-08T18:07:16.759Z,2.33
2022-12-08T18:09:52.247Z,2.34
2022-12-08T18:12:23.861Z,2.32
2022-12-08T18:14:53.211Z,2.33
2022-12-08T18:17:22.252Z,2.34
2022-12-08T18:19:54.395Z,2.34
2022-12-08T18:22:23.586Z,2.34
2022-12-08T18:24:52.620Z,2.33
2022-12-08T18:27:22.375Z,2.34
2022-12-08T18:30:03.054Z,2.34
2022-12-08T18:32:38.081Z,2.34
2022-12-08T18:35:17.111Z,2.36
2022-12-08T18:37:47.884Z,2.34
2022-12-08T18:40:19.704Z,2.32
2022-12-08T18:42:48.617Z,2.30
2022-12-08T18:45:22.654Z,2.29
2022-12-08T18:47:52.285Z,2.27
2022-12-08T18:50:21.323Z,2.23
2022-12-08T18:52:52.272Z,2.21
2022-12-08T18:55:22.296Z,2.17
2022-12-08T18:57:51.263Z,2.13
2022-12-08T19:00:21.600Z,2.09
2022-12-08T19:02:52.330Z,2.02
2022-12-08T19:05:21.648Z,1.96
2022-12-08T19:07:51.708Z,1.88
2022-12-08T19:10:20.745Z,1.82
2022-12-08T19:12:51.160Z,1.75
2022-12-08T19:15:22.516Z,1.65
2022-12-08T19:17:54.290Z,1.60
2022-12-08T19:20:26.963Z,1.50
2022-12-08T19:22:59.531Z,1.44
2022-12-08T19:25:28.801Z,1.42
2022-12-08T19:27:57.821Z,1.33
2022-12-08T19:30:26.953Z,1.27
2022-12-08T19:32:57.107Z,1.22
2022-12-08T19:35:25.973Z,1.18
2022-12-08T19:37:54.916Z,1.12
2022-12-08T19:40:43.061Z,1.12
2022-12-08T19:43:38.000Z,1.06
2022-12-08T19:46:10.906Z,1.03
2022-12-08T19:48:49.897Z,1.03
2022-12-08T19:51:22.661Z,0.98
2022-12-08T19:53:51.508Z,0.98
2022-12-08T19:56:20.508Z,0.95
2022-12-08T19:58:49.622Z,0.92
2022-12-08T20:01:19.562Z,0.89
2022-12-08T20:03:48.768Z,0.87
2022-12-08T20:06:19.872Z,0.85
2022-12-08T20:08:50.791Z,0.79
2022-12-08T20:11:19.939Z,0.77
2022-12-08T20:13:51.034Z,0.74
2022-12-08T20:16:23.964Z,0.70
2022-12-08T20:18:56.182Z,0.65
2022-12-08T20:21:25.376Z,0.61
2022-12-08T20:24:05.293Z,0.57
2022-12-08T20:26:40.436Z,0.56
2022-12-08T20:29:14.345Z,0.51
2022-12-08T20:31:49.627Z,0.47
2022-12-08T20:34:22.687Z,0.43
2022-12-08T20:36:56.906Z,0.39
2022-12-08T20:39:26.582Z,0.34
2022-12-08T20:41:59.614Z,0.30
2022-12-08T20:44:29.732Z,0.29
2022-12-08T20:46:58.765Z,0.28
2022-12-08T20:49:34.559Z,0.25
2022-12-08T20:52:04.759Z,0.21
2022-12-08T20:54:37.033Z,0.21
2022-12-08T20:57:06.326Z,0.21
2022-12-08T20:59:36.948Z,0.21
2022-12-08T21:02:19.324Z,0.16
2022-12-08T21:04:48.890Z,0.14
2022-12-08T21:07:21.045Z,0.15
2022-12-08T21:09:55.087Z,0.14
2022-12-08T21:12:25.932Z,0.12
2022-12-08T21:14:55.203Z,0.11
2022-12-08T21:17:28.605Z,0.09
2022-12-08T21:20:00.633Z,0.09
2022-12-08T21:22:30.336Z,0.09
2022-12-08T21:24:59.431Z,0.08
2022-12-08T21:27:28.716Z,0.12
2022-12-08T21:30:00.736Z,0.08
2022-12-08T21:32:30.927Z,0.05
2022-12-08T21:35:06.330Z,0.05
2022-12-08T21:37:36.404Z,0.06
2022-12-08T21:40:11.715Z,0.04
2022-12-08T21:42:44.991Z,0.02
2022-12-08T21:45:16.425Z,-0.01
2022-12-08T21:47:51.573Z,-0.01
2022-12-08T21:50:25.029Z,0.01
2022-12-08T21:52:56.509Z,-0.05
2022-12-08T21:55:26.711Z,-0.06
2022-12-08T21:58:00.872Z,-0.09
2022-12-08T22:00:30.399Z,-0.11
2022-12-08T22:02:59.518Z,-0.11
2022-12-08T22:05:31.196Z,-0.18
2022-12-08T22:08:00.401Z,-0.22
2022-12-08T22:10:29.576Z,-0.26
2022-12-08T22:12:58.567Z,-0.25
2022-12-08T22:15:32.304Z,-0.27
2022-12-08T22:18:01.521Z,-0.29
2022-12-08T22:20:30.813Z,-0.32
2022-12-08T22:23:00.963Z,-0.33
2022-12-08T22:25:32.197Z,-0.34
2022-12-08T22:28:01.269Z,-0.34
2022-12-08T22:30:35.606Z,-0.37
2022-12-08T22:33:07.767Z,-0.39
2022-12-08T22:35:37.578Z,-0.39
2022-12-08T22:38:06.573Z,-0.41
2022-12-08T22:40:35.869Z,-0.43
2022-12-08T22:43:05.489Z,-0.43
2022-12-08T22:45:34.628Z,-0.43
2022-12-08T22:48:09.557Z,-0.41
2022-12-08T22:50:38.690Z,-0.40
2022-12-08T22:53:10.059Z,-0.41
2022-12-08T22:55:42.937Z,-0.43
2022-12-08T22:58:13.108Z,-0.43
2022-12-08T23:00:42.119Z,-0.43
2022-12-08T23:03:14.032Z,-0.43
2022-12-08T23:05:43.160Z,-0.46
2022-12-08T23:08:17.242Z,-0.50
2022-12-08T23:10:47.787Z,-0.50
2022-12-08T23:13:17.370Z,-0.51
2022-12-08T23:15:46.802Z,-0.50
2022-12-08T23:18:18.543Z,-0.50
2022-12-08T23:20:50.761Z,-0.51
2022-12-08T23:23:24.055Z,-0.54
2022-12-08T23:25:53.409Z,-0.54
2022-12-08T23:28:24.984Z,-0.57
2022-12-08T23:30:59.281Z,-0.57
2022-12-08T23:33:31.422Z,-0.58
2022-12-08T23:36:00.954Z,-0.60
2022-12-08T23:38:33.483Z,-0.60
2022-12-08T23:41:09.633Z,-0.61
2022-12-08T23:43:45.015Z,-0.61
2022-12-08T23:46:15.797Z,-0.62
2022-12-08T23:48:45.663Z,-0.62
2022-12-08T23:51:17.962Z,-0.61
2022-12-08T23:53:49.836Z,-0.62
2022-12-08T23:56:24.338Z,-0.61
2022-12-08T23:59:01.313Z,-0.62
